LGS2411 EBBR-BIKF
Flight info
| Callsign | LGS2411 |
|---|---|
| Flight time | N/A |
| Altitude | 36000 |
| Route | DENUT L610 KOPUL Q60 OKSAW DCT TEWXI DCT LIPGO DCT INKUR DCT REVNU DCT OSBOX DCT AGORI/M078F360 DCT 58N015W 61N020W DCT BASLU BASLU3K |
| Aircraft | A320/M-SDE3FGHIRWY/LB1 |
Departure
| Time | 2026-04-30 21:46 |
|---|---|
| Airport | Brussels Airport (EBBR) |
Arrival
| Time | N/A |
|---|---|
| Airport | Keflavik International Airport (BIKF) |
| Time | Latitude | Longitude | Altitude | Speed | Heading |
|---|---|---|---|---|---|
| 2026-04-30 21:14 | 50.90516 | 4.48951 | 121 ft | 0 kts | 155° |
| 2026-04-30 21:28 | 50.90550 | 4.48934 | 117 ft | 4 kts | 175° |
| 2026-04-30 21:29 | 50.90576 | 4.48936 | 117 ft | 4 kts | 197° |
| 2026-04-30 21:29 | 50.90633 | 4.49019 | 117 ft | 4 kts | 246° |
| 2026-04-30 21:30 | 50.90649 | 4.49086 | 119 ft | 0 kts | 245° |
| 2026-04-30 21:32 | 50.90640 | 4.49055 | 117 ft | 5 kts | 244° |
| 2026-04-30 21:32 | 50.90628 | 4.49017 | 117 ft | 9 kts | 244° |
| 2026-04-30 21:32 | 50.90569 | 4.48816 | 120 ft | 25 kts | 245° |
| 2026-04-30 21:33 | 50.90489 | 4.48536 | 118 ft | 10 kts | 246° |
| 2026-04-30 21:33 | 50.90437 | 4.48356 | 117 ft | 8 kts | 245° |
| 2026-04-30 21:33 | 50.90416 | 4.48285 | 118 ft | 9 kts | 245° |
| 2026-04-30 21:34 | 50.90379 | 4.48155 | 120 ft | 13 kts | 245° |
| 2026-04-30 21:34 | 50.90402 | 4.47975 | 120 ft | 9 kts | 267° |
| 2026-04-30 21:34 | 50.90379 | 4.47887 | 118 ft | 9 kts | 246° |
| 2026-04-30 21:35 | 50.90348 | 4.47776 | 118 ft | 11 kts | 246° |
| 2026-04-30 21:35 | 50.90320 | 4.47675 | 117 ft | 9 kts | 245° |
| 2026-04-30 21:35 | 50.90294 | 4.47584 | 121 ft | 12 kts | 246° |
| 2026-04-30 21:35 | 50.90246 | 4.47422 | 119 ft | 16 kts | 244° |
| 2026-04-30 21:36 | 50.90206 | 4.47284 | 121 ft | 12 kts | 245° |
| 2026-04-30 21:36 | 50.90175 | 4.47175 | 124 ft | 9 kts | 245° |
| 2026-04-30 21:37 | 50.90184 | 4.47061 | 125 ft | 0 kts | 300° |
| 2026-04-30 21:42 | 50.90190 | 4.47046 | 124 ft | 0 kts | 299° |
| 2026-04-30 21:43 | 50.90208 | 4.46995 | 124 ft | 6 kts | 299° |
| 2026-04-30 21:43 | 50.90226 | 4.46943 | 124 ft | 4 kts | 299° |
| 2026-04-30 21:44 | 50.90238 | 4.46910 | 125 ft | 3 kts | 299° |
| 2026-04-30 21:44 | 50.90246 | 4.46897 | 124 ft | 1 kts | 322° |
| 2026-04-30 21:44 | 50.90249 | 4.46896 | 124 ft | 3 kts | 335° |
| 2026-04-30 21:44 | 50.90294 | 4.46956 | 126 ft | 11 kts | 63° |
| 2026-04-30 21:45 | 50.90328 | 4.47069 | 122 ft | 13 kts | 65° |
| 2026-04-30 21:45 | 50.90433 | 4.47431 | 120 ft | 77 kts | 65° |
| 2026-04-30 21:45 | 50.90764 | 4.48593 | 120 ft | 151 kts | 66° |
| 2026-04-30 21:45 | 50.91238 | 4.50330 | 525 ft | 179 kts | 69° |
| 2026-04-30 21:46 | 50.91736 | 4.52148 | 1523 ft | 179 kts | 72° |
| 2026-04-30 21:46 | 50.92338 | 4.53910 | 2393 ft | 196 kts | 56° |
| 2026-04-30 21:46 | 50.93662 | 4.55016 | 2935 ft | 243 kts | 12° |
| 2026-04-30 21:46 | 50.95434 | 4.54550 | 3549 ft | 279 kts | 334° |
| 2026-04-30 21:47 | 50.96863 | 4.52443 | 4296 ft | 284 kts | 297° |
| 2026-04-30 21:47 | 50.97592 | 4.49624 | 5469 ft | 271 kts | 285° |
| 2026-04-30 21:47 | 50.98140 | 4.46809 | 6396 ft | 272 kts | 285° |
| 2026-04-30 21:47 | 50.98698 | 4.43925 | 7208 ft | 275 kts | 285° |
| 2026-04-30 21:48 | 50.99260 | 4.41011 | 8003 ft | 278 kts | 285° |
| 2026-04-30 21:48 | 50.99883 | 4.38082 | 8789 ft | 282 kts | 291° |
| 2026-04-30 21:48 | 51.00716 | 4.35239 | 9594 ft | 286 kts | 297° |
| 2026-04-30 21:48 | 51.01658 | 4.32448 | 10373 ft | 289 kts | 299° |
| 2026-04-30 21:49 | 51.02642 | 4.29652 | 11103 ft | 292 kts | 299° |
| 2026-04-30 21:49 | 51.03635 | 4.26819 | 11816 ft | 295 kts | 298° |
| 2026-04-30 21:49 | 51.04628 | 4.23941 | 12543 ft | 298 kts | 298° |
| 2026-04-30 21:49 | 51.05616 | 4.21029 | 13261 ft | 301 kts | 298° |
| 2026-04-30 21:50 | 51.06605 | 4.18067 | 13974 ft | 305 kts | 297° |
| 2026-04-30 21:50 | 51.07593 | 4.15069 | 14616 ft | 308 kts | 297° |
| 2026-04-30 21:50 | 51.08584 | 4.12037 | 15244 ft | 311 kts | 297° |
| 2026-04-30 21:50 | 51.09587 | 4.08967 | 15865 ft | 314 kts | 297° |
| 2026-04-30 21:51 | 51.10597 | 4.05875 | 16501 ft | 317 kts | 297° |
| 2026-04-30 21:51 | 51.11618 | 4.02752 | 17135 ft | 320 kts | 297° |
| 2026-04-30 21:51 | 51.12651 | 3.99594 | 17746 ft | 323 kts | 297° |
| 2026-04-30 21:51 | 51.13692 | 3.96409 | 18366 ft | 326 kts | 296° |
| 2026-04-30 21:52 | 51.14740 | 3.93191 | 18936 ft | 329 kts | 296° |
| 2026-04-30 21:52 | 51.15795 | 3.89941 | 19483 ft | 332 kts | 296° |
| 2026-04-30 21:52 | 51.16861 | 3.86655 | 20019 ft | 335 kts | 296° |
| 2026-04-30 21:52 | 51.17933 | 3.83349 | 20560 ft | 337 kts | 296° |
| 2026-04-30 21:53 | 51.19015 | 3.80013 | 21091 ft | 340 kts | 296° |
| 2026-04-30 21:53 | 51.20104 | 3.76648 | 21627 ft | 343 kts | 296° |
| 2026-04-30 21:53 | 51.21199 | 3.73261 | 22152 ft | 345 kts | 297° |
| 2026-04-30 21:53 | 51.22290 | 3.69888 | 22656 ft | 348 kts | 296° |
| 2026-04-30 21:54 | 51.23300 | 3.66363 | 23160 ft | 351 kts | 290° |
| 2026-04-30 21:54 | 51.24033 | 3.62643 | 23663 ft | 353 kts | 282° |
| 2026-04-30 21:54 | 51.24543 | 3.58802 | 24108 ft | 355 kts | 280° |
| 2026-04-30 21:54 | 51.25049 | 3.54934 | 24540 ft | 357 kts | 280° |
| 2026-04-30 21:55 | 51.25564 | 3.51047 | 24968 ft | 359 kts | 280° |
| 2026-04-30 21:55 | 51.26083 | 3.47139 | 25392 ft | 361 kts | 280° |
| 2026-04-30 21:55 | 51.26607 | 3.43208 | 25820 ft | 363 kts | 280° |
| 2026-04-30 21:55 | 51.27132 | 3.39258 | 26243 ft | 365 kts | 280° |
| 2026-04-30 21:56 | 51.27652 | 3.35289 | 26669 ft | 366 kts | 280° |
| 2026-04-30 21:56 | 51.28165 | 3.31296 | 27082 ft | 368 kts | 279° |
| 2026-04-30 21:56 | 51.28678 | 3.27274 | 27496 ft | 370 kts | 279° |
| 2026-04-30 21:56 | 51.29193 | 3.23238 | 27902 ft | 372 kts | 279° |
| 2026-04-30 21:57 | 51.29713 | 3.19171 | 28299 ft | 374 kts | 279° |
| 2026-04-30 21:57 | 51.30234 | 3.15091 | 28693 ft | 376 kts | 279° |
| 2026-04-30 21:57 | 51.30756 | 3.10978 | 29088 ft | 378 kts | 279° |
| 2026-04-30 21:57 | 51.31277 | 3.06863 | 29563 ft | 377 kts | 279° |
| 2026-04-30 21:58 | 51.31796 | 3.02768 | 30053 ft | 376 kts | 279° |
| 2026-04-30 21:58 | 51.32315 | 2.98676 | 30513 ft | 375 kts | 279° |
| 2026-04-30 21:58 | 51.32828 | 2.94595 | 30917 ft | 373 kts | 279° |
| 2026-04-30 21:58 | 51.33336 | 2.90533 | 31309 ft | 373 kts | 279° |
| 2026-04-30 21:59 | 51.33842 | 2.86466 | 31626 ft | 374 kts | 279° |
| 2026-04-30 21:59 | 51.34346 | 2.82372 | 31910 ft | 376 kts | 279° |
| 2026-04-30 21:59 | 51.34853 | 2.78260 | 32187 ft | 379 kts | 279° |
| 2026-04-30 22:00 | 51.35878 | 2.70008 | 32761 ft | 383 kts | 279° |
| 2026-04-30 22:00 | 51.36919 | 2.61601 | 33321 ft | 387 kts | 279° |
| 2026-04-30 22:00 | 51.37437 | 2.57373 | 33601 ft | 389 kts | 279° |
| 2026-04-30 22:01 | 51.37955 | 2.53114 | 33865 ft | 391 kts | 279° |
| 2026-04-30 22:01 | 51.38477 | 2.48833 | 34125 ft | 393 kts | 279° |
| 2026-04-30 22:01 | 51.39000 | 2.44534 | 34357 ft | 395 kts | 279° |
| 2026-04-30 22:01 | 51.39524 | 2.40202 | 34577 ft | 396 kts | 278° |
| 2026-04-30 22:02 | 51.40042 | 2.35866 | 34779 ft | 398 kts | 278° |
| 2026-04-30 22:02 | 51.40560 | 2.31501 | 34989 ft | 400 kts | 278° |
| 2026-04-30 22:02 | 51.41083 | 2.27118 | 35194 ft | 401 kts | 278° |
| 2026-04-30 22:02 | 51.41614 | 2.22716 | 35393 ft | 403 kts | 279° |
| 2026-04-30 22:03 | 51.42156 | 2.18310 | 35599 ft | 405 kts | 279° |
| 2026-04-30 22:03 | 51.42703 | 2.13883 | 35779 ft | 406 kts | 279° |
| 2026-04-30 22:03 | 51.43248 | 2.09437 | 35967 ft | 408 kts | 279° |
| 2026-04-30 22:03 | 51.43791 | 2.04969 | 36159 ft | 409 kts | 279° |
| 2026-04-30 22:04 | 51.44871 | 1.95966 | 36267 ft | 412 kts | 278° |
| 2026-04-30 22:05 | 51.46463 | 1.82496 | 36263 ft | 412 kts | 278° |
| 2026-04-30 22:05 | 51.47508 | 1.73471 | 36264 ft | 412 kts | 278° |
| 2026-04-30 22:06 | 51.48538 | 1.64432 | 36258 ft | 412 kts | 278° |
| 2026-04-30 22:06 | 51.50081 | 1.50876 | 36257 ft | 412 kts | 278° |
| 2026-04-30 22:07 | 51.51100 | 1.41834 | 36258 ft | 412 kts | 278° |
| 2026-04-30 22:07 | 51.52112 | 1.32792 | 36258 ft | 412 kts | 278° |
| 2026-04-30 22:08 | 51.53114 | 1.23792 | 36254 ft | 412 kts | 277° |
| 2026-04-30 22:08 | 51.54116 | 1.14681 | 36249 ft | 412 kts | 277° |
| 2026-04-30 22:09 | 51.54878 | 1.05648 | 36249 ft | 410 kts | 273° |
| 2026-04-30 22:09 | 51.55394 | 0.96521 | 36250 ft | 410 kts | 272° |
| 2026-04-30 22:10 | 51.55896 | 0.87402 | 36252 ft | 410 kts | 272° |
| 2026-04-30 22:10 | 51.56451 | 0.78277 | 36255 ft | 410 kts | 273° |
| 2026-04-30 22:11 | 51.57311 | 0.64606 | 36258 ft | 409 kts | 273° |
| 2026-04-30 22:12 | 51.57864 | 0.55508 | 36258 ft | 409 kts | 272° |
| 2026-04-30 22:12 | 51.58405 | 0.46405 | 36258 ft | 409 kts | 272° |
| 2026-04-30 22:13 | 51.58944 | 0.37250 | 36245 ft | 420 kts | 272° |
| 2026-04-30 22:13 | 51.59494 | 0.27751 | 36226 ft | 433 kts | 272° |
| 2026-04-30 22:14 | 51.60051 | 0.17970 | 36224 ft | 445 kts | 272° |
| 2026-04-30 22:14 | 51.60614 | 0.07926 | 36221 ft | 455 kts | 272° |
| 2026-04-30 22:15 | 51.61179 | -0.02255 | 36220 ft | 458 kts | 272° |
| 2026-04-30 22:15 | 51.61739 | -0.12467 | 36270 ft | 458 kts | 272° |
| 2026-04-30 22:16 | 51.62345 | -0.22682 | 36275 ft | 459 kts | 273° |
| 2026-04-30 22:17 | 51.63625 | -0.43123 | 36223 ft | 459 kts | 273° |
| 2026-04-30 22:17 | 51.64529 | -0.58465 | 36212 ft | 459 kts | 272° |
| 2026-04-30 22:18 | 51.65407 | -0.73826 | 36214 ft | 459 kts | 272° |
| 2026-04-30 22:19 | 51.66281 | -0.89187 | 36210 ft | 459 kts | 272° |
| 2026-04-30 22:20 | 51.67122 | -1.04557 | 36208 ft | 459 kts | 272° |
| 2026-04-30 22:20 | 51.67949 | -1.19920 | 36213 ft | 459 kts | 272° |
| 2026-04-30 22:21 | 51.68484 | -1.30092 | 36214 ft | 459 kts | 272° |
| 2026-04-30 22:21 | 51.69018 | -1.40325 | 36213 ft | 458 kts | 272° |
| 2026-04-30 22:22 | 51.69536 | -1.50557 | 36201 ft | 458 kts | 272° |
| 2026-04-30 22:22 | 51.70048 | -1.60788 | 36213 ft | 458 kts | 272° |
| 2026-04-30 22:23 | 51.71293 | -1.70853 | 36210 ft | 462 kts | 288° |
| 2026-04-30 22:23 | 51.74062 | -1.80231 | 36204 ft | 463 kts | 295° |
| 2026-04-30 22:24 | 51.76944 | -1.89533 | 36213 ft | 463 kts | 295° |
| 2026-04-30 22:24 | 51.79807 | -1.98850 | 36207 ft | 463 kts | 294° |
| 2026-04-30 22:25 | 51.82981 | -2.07905 | 36207 ft | 464 kts | 300° |
| 2026-04-30 22:25 | 51.85824 | -2.15270 | 36210 ft | 464 kts | 300° |
| 2026-04-30 22:26 | 51.90930 | -2.28582 | 36212 ft | 464 kts | 300° |
| 2026-04-30 22:27 | 51.94327 | -2.37485 | 36210 ft | 464 kts | 300° |
| 2026-04-30 22:27 | 51.99410 | -2.50847 | 36198 ft | 464 kts | 300° |
| 2026-04-30 22:28 | 52.04479 | -2.64235 | 36197 ft | 464 kts | 300° |
| 2026-04-30 22:29 | 52.11204 | -2.82168 | 36193 ft | 465 kts | 300° |
| 2026-04-30 22:31 | 52.22934 | -3.13634 | 36186 ft | 466 kts | 299° |
| 2026-04-30 22:32 | 52.31279 | -3.36333 | 36177 ft | 467 kts | 299° |
| 2026-04-30 22:33 | 52.39623 | -3.59156 | 36167 ft | 468 kts | 298° |
| 2026-04-30 22:35 | 52.47930 | -3.82092 | 36162 ft | 468 kts | 298° |
| 2026-04-30 22:36 | 52.56186 | -4.05177 | 36151 ft | 469 kts | 298° |
| 2026-04-30 22:37 | 52.62764 | -4.23643 | 36151 ft | 469 kts | 298° |
| 2026-04-30 22:38 | 52.69324 | -4.42233 | 36150 ft | 470 kts | 297° |
| 2026-04-30 22:39 | 52.74230 | -4.56227 | 36138 ft | 470 kts | 297° |
| 2026-04-30 22:40 | 52.84005 | -4.84345 | 36146 ft | 471 kts | 297° |
| 2026-04-30 22:41 | 52.92115 | -5.07895 | 36137 ft | 471 kts | 297° |
| 2026-04-30 22:43 | 53.01783 | -5.36313 | 36140 ft | 472 kts | 297° |
| 2026-04-30 22:44 | 53.08108 | -5.55408 | 36136 ft | 471 kts | 294° |
| 2026-04-30 22:45 | 53.16563 | -5.84945 | 36129 ft | 472 kts | 293° |
| 2026-04-30 22:47 | 53.25093 | -6.14496 | 36117 ft | 473 kts | 292° |
| 2026-04-30 22:48 | 53.30748 | -6.34385 | 36109 ft | 475 kts | 292° |
| 2026-04-30 22:49 | 53.39201 | -6.64407 | 36115 ft | 476 kts | 292° |
| 2026-04-30 22:51 | 53.47590 | -6.94602 | 36113 ft | 476 kts | 292° |
| 2026-04-30 22:52 | 53.51762 | -7.09760 | 36114 ft | 477 kts | 291° |
| 2026-04-30 22:53 | 53.57280 | -7.29965 | 36107 ft | 477 kts | 291° |
| 2026-04-30 22:53 | 53.61738 | -7.44991 | 36103 ft | 480 kts | 297° |
| 2026-04-30 22:55 | 53.69958 | -7.69512 | 36099 ft | 481 kts | 296° |
| 2026-04-30 22:56 | 53.76492 | -7.89257 | 36097 ft | 482 kts | 296° |
| 2026-04-30 22:57 | 53.84644 | -8.14049 | 36096 ft | 483 kts | 296° |
| 2026-04-30 22:58 | 53.91143 | -8.33981 | 36098 ft | 483 kts | 296° |
| 2026-04-30 22:59 | 54.00826 | -8.64047 | 36099 ft | 484 kts | 296° |